sensor_id;sensor_type;location;lat;lon;timestamp;P1;durP1;ratioP1;P2;durP2;ratioP2
11386;SDS011;5748;53.102;8.456;2023-03-22T00:01:10;5.17;;;4.67;;
11386;SDS011;5748;53.102;8.456;2023-03-22T00:03:40;5.50;;;5.00;;
11386;SDS011;5748;53.102;8.456;2023-03-22T00:06:08;4.77;;;4.37;;
11386;SDS011;5748;53.102;8.456;2023-03-22T00:08:35;4.40;;;4.00;;
11386;SDS011;5748;53.102;8.456;2023-03-22T00:11:02;5.37;;;4.87;;
11386;SDS011;5748;53.102;8.456;2023-03-22T00:13:33;5.27;;;4.80;;
11386;SDS011;5748;53.102;8.456;2023-03-22T00:16:01;5.07;;;4.57;;
11386;SDS011;5748;53.102;8.456;2023-03-22T00:18:28;5.10;;;4.60;;
11386;SDS011;5748;53.102;8.456;2023-03-22T00:20:57;4.83;;;4.43;;
11386;SDS011;5748;53.102;8.456;2023-03-22T00:23:25;4.70;;;4.30;;
11386;SDS011;5748;53.102;8.456;2023-03-22T00:25:53;5.23;;;4.73;;
11386;SDS011;5748;53.102;8.456;2023-03-22T00:28:21;5.30;;;4.77;;
11386;SDS011;5748;53.102;8.456;2023-03-22T00:30:53;5.07;;;4.60;;
11386;SDS011;5748;53.102;8.456;2023-03-22T00:33:23;5.83;;;5.33;;
11386;SDS011;5748;53.102;8.456;2023-03-22T00:35:50;5.80;;;5.30;;
11386;SDS011;5748;53.102;8.456;2023-03-22T00:38:19;5.60;;;5.10;;
11386;SDS011;5748;53.102;8.456;2023-03-22T00:40:47;5.53;;;5.03;;
11386;SDS011;5748;53.102;8.456;2023-03-22T00:43:14;5.13;;;4.63;;
11386;SDS011;5748;53.102;8.456;2023-03-22T00:45:41;4.87;;;4.40;;
11386;SDS011;5748;53.102;8.456;2023-03-22T00:48:10;5.17;;;4.67;;
11386;SDS011;5748;53.102;8.456;2023-03-22T00:50:37;4.70;;;4.30;;
11386;SDS011;5748;53.102;8.456;2023-03-22T00:53:05;4.97;;;4.47;;
11386;SDS011;5748;53.102;8.456;2023-03-22T00:55:32;4.97;;;4.47;;
11386;SDS011;5748;53.102;8.456;2023-03-22T00:57:59;5.00;;;4.50;;
11386;SDS011;5748;53.102;8.456;2023-03-22T01:00:26;5.50;;;5.00;;
11386;SDS011;5748;53.102;8.456;2023-03-22T01:02:54;5.67;;;5.13;;
11386;SDS011;5748;53.102;8.456;2023-03-22T01:05:29;4.83;;;4.40;;
11386;SDS011;5748;53.102;8.456;2023-03-22T01:07:58;4.90;;;4.50;;
11386;SDS011;5748;53.102;8.456;2023-03-22T01:10:30;5.60;;;5.10;;
11386;SDS011;5748;53.102;8.456;2023-03-22T01:12:57;4.70;;;4.30;;
11386;SDS011;5748;53.102;8.456;2023-03-22T01:15:24;6.03;;;5.43;;
11386;SDS011;5748;53.102;8.456;2023-03-22T01:17:51;5.73;;;5.23;;
11386;SDS011;5748;53.102;8.456;2023-03-22T01:20:19;5.37;;;4.87;;
11386;SDS011;5748;53.102;8.456;2023-03-22T01:22:47;6.07;;;5.57;;
11386;SDS011;5748;53.102;8.456;2023-03-22T01:25:14;5.70;;;5.20;;
11386;SDS011;5748;53.102;8.456;2023-03-22T01:27:42;5.53;;;5.03;;
11386;SDS011;5748;53.102;8.456;2023-03-22T01:30:09;5.87;;;5.37;;
11386;SDS011;5748;53.102;8.456;2023-03-22T01:32:37;6.40;;;5.80;;
11386;SDS011;5748;53.102;8.456;2023-03-22T01:35:05;6.13;;;5.53;;
11386;SDS011;5748;53.102;8.456;2023-03-22T01:37:32;5.70;;;5.20;;
11386;SDS011;5748;53.102;8.456;2023-03-22T01:40:01;6.10;;;5.50;;
11386;SDS011;5748;53.102;8.456;2023-03-22T01:42:28;5.07;;;4.57;;
11386;SDS011;5748;53.102;8.456;2023-03-22T01:48:05;6.23;;;5.40;;
11386;SDS011;5748;53.102;8.456;2023-03-22T01:50:38;6.37;;;5.77;;
11386;SDS011;5748;53.102;8.456;2023-03-22T01:53:09;5.13;;;4.67;;
11386;SDS011;5748;53.102;8.456;2023-03-22T01:55:39;5.47;;;4.93;;
11386;SDS011;5748;53.102;8.456;2023-03-22T01:58:07;6.30;;;5.70;;
11386;SDS011;5748;53.102;8.456;2023-03-22T02:00:34;6.07;;;5.47;;
11386;SDS011;5748;53.102;8.456;2023-03-22T02:03:01;5.93;;;5.43;;
11386;SDS011;5748;53.102;8.456;2023-03-22T02:05:31;5.90;;;5.37;;
11386;SDS011;5748;53.102;8.456;2023-03-22T02:07:59;6.13;;;5.53;;
11386;SDS011;5748;53.102;8.456;2023-03-22T02:10:28;6.03;;;5.53;;
11386;SDS011;5748;53.102;8.456;2023-03-22T02:13:01;5.80;;;5.20;;
11386;SDS011;5748;53.102;8.456;2023-03-22T02:15:46;5.33;;;4.67;;
11386;SDS011;5748;53.102;8.456;2023-03-22T02:18:22;6.10;;;5.50;;
11386;SDS011;5748;53.102;8.456;2023-03-22T02:21:18;5.90;;;4.80;;
11386;SDS011;5748;53.102;8.456;2023-03-22T02:24:39;5.17;;;4.13;;
11386;SDS011;5748;53.102;8.456;2023-03-22T02:30:44;6.30;;;5.47;;
11386;SDS011;5748;53.102;8.456;2023-03-22T02:39:53;5.60;;;4.87;;
11386;SDS011;5748;53.102;8.456;2023-03-22T02:42:27;5.60;;;5.10;;
11386;SDS011;5748;53.102;8.456;2023-03-22T02:45:09;5.40;;;4.70;;
11386;SDS011;5748;53.102;8.456;2023-03-22T02:47:41;5.57;;;4.97;;
11386;SDS011;5748;53.102;8.456;2023-03-22T02:50:19;4.53;;;4.13;;
11386;SDS011;5748;53.102;8.456;2023-03-22T02:52:51;4.50;;;4.10;;
11386;SDS011;5748;53.102;8.456;2023-03-22T02:55:25;4.10;;;3.70;;
11386;SDS011;5748;53.102;8.456;2023-03-22T02:57:56;4.80;;;4.13;;
11386;SDS011;5748;53.102;8.456;2023-03-22T03:00:27;4.53;;;4.13;;
11386;SDS011;5748;53.102;8.456;2023-03-22T03:02:57;5.50;;;4.77;;
11386;SDS011;5748;53.102;8.456;2023-03-22T03:05:35;4.50;;;4.10;;
11386;SDS011;5748;53.102;8.456;2023-03-22T03:08:04;4.80;;;4.27;;
11386;SDS011;5748;53.102;8.456;2023-03-22T03:10:36;4.80;;;3.73;;
11386;SDS011;5748;53.102;8.456;2023-03-22T03:13:04;4.10;;;3.30;;
11386;SDS011;5748;53.102;8.456;2023-03-22T03:15:34;4.03;;;3.23;;
11386;SDS011;5748;53.102;8.456;2023-03-22T03:18:05;3.40;;;3.10;;
11386;SDS011;5748;53.102;8.456;2023-03-22T03:20:48;3.23;;;2.93;;
11386;SDS011;5748;53.102;8.456;2023-03-22T03:23:27;4.60;;;3.77;;
11386;SDS011;5748;53.102;8.456;2023-03-22T03:26:12;4.33;;;3.23;;
11386;SDS011;5748;53.102;8.456;2023-03-22T03:28:49;3.53;;;3.23;;
11386;SDS011;5748;53.102;8.456;2023-03-22T03:31:25;4.77;;;3.70;;
11386;SDS011;5748;53.102;8.456;2023-03-22T03:33:59;4.73;;;3.53;;
11386;SDS011;5748;53.102;8.456;2023-03-22T03:36:36;4.03;;;3.40;;
11386;SDS011;5748;53.102;8.456;2023-03-22T03:39:09;3.10;;;2.80;;
11386;SDS011;5748;53.102;8.456;2023-03-22T03:41:41;3.10;;;2.57;;
11386;SDS011;5748;53.102;8.456;2023-03-22T03:44:11;4.03;;;3.10;;
11386;SDS011;5748;53.102;8.456;2023-03-22T03:46:40;3.40;;;3.10;;
11386;SDS011;5748;53.102;8.456;2023-03-22T03:49:07;3.37;;;3.07;;
11386;SDS011;5748;53.102;8.456;2023-03-22T03:51:44;3.63;;;3.20;;
11386;SDS011;5748;53.102;8.456;2023-03-22T03:54:13;3.27;;;2.80;;
11386;SDS011;5748;53.102;8.456;2023-03-22T03:56:42;2.93;;;2.63;;
11386;SDS011;5748;53.102;8.456;2023-03-22T03:59:11;3.50;;;3.00;;
11386;SDS011;5748;53.102;8.456;2023-03-22T04:01:39;3.53;;;3.23;;
11386;SDS011;5748;53.102;8.456;2023-03-22T04:04:14;2.63;;;2.40;;
11386;SDS011;5748;53.102;8.456;2023-03-22T04:06:42;3.40;;;2.57;;
11386;SDS011;5748;53.102;8.456;2023-03-22T04:09:09;2.53;;;2.30;;
11386;SDS011;5748;53.102;8.456;2023-03-22T04:11:36;2.33;;;2.13;;
11386;SDS011;5748;53.102;8.456;2023-03-22T04:14:05;2.10;;;1.90;;
11386;SDS011;5748;53.102;8.456;2023-03-22T04:16:32;2.83;;;2.53;;
11386;SDS011;5748;53.102;8.456;2023-03-22T04:18:59;2.27;;;2.07;;
11386;SDS011;5748;53.102;8.456;2023-03-22T04:21:26;3.63;;;2.50;;
11386;SDS011;5748;53.102;8.456;2023-03-22T04:23:53;2.53;;;2.20;;
11386;SDS011;5748;53.102;8.456;2023-03-22T04:26:20;2.87;;;2.47;;
11386;SDS011;5748;53.102;8.456;2023-03-22T04:28:47;2.60;;;2.40;;
11386;SDS011;5748;53.102;8.456;2023-03-22T04:31:15;2.97;;;2.40;;
11386;SDS011;5748;53.102;8.456;2023-03-22T04:33:43;2.30;;;2.10;;
11386;SDS011;5748;53.102;8.456;2023-03-22T04:36:11;3.10;;;2.63;;
11386;SDS011;5748;53.102;8.456;2023-03-22T04:38:41;3.20;;;2.90;;
11386;SDS011;5748;53.102;8.456;2023-03-22T04:41:09;3.50;;;3.20;;
11386;SDS011;5748;53.102;8.456;2023-03-22T04:43:36;3.10;;;2.80;;
11386;SDS011;5748;53.102;8.456;2023-03-22T04:46:03;3.40;;;3.10;;
11386;SDS011;5748;53.102;8.456;2023-03-22T04:48:35;3.30;;;3.00;;
11386;SDS011;5748;53.102;8.456;2023-03-22T04:51:04;4.20;;;3.80;;
11386;SDS011;5748;53.102;8.456;2023-03-22T04:53:32;3.57;;;3.27;;
11386;SDS011;5748;53.102;8.456;2023-03-22T04:56:03;3.57;;;3.27;;
11386;SDS011;5748;53.102;8.456;2023-03-22T04:58:31;4.00;;;3.60;;
11386;SDS011;5748;53.102;8.456;2023-03-22T05:01:00;4.00;;;3.60;;
11386;SDS011;5748;53.102;8.456;2023-03-22T05:03:27;3.80;;;3.40;;
11386;SDS011;5748;53.102;8.456;2023-03-22T05:05:56;4.40;;;3.77;;
11386;SDS011;5748;53.102;8.456;2023-03-22T05:08:28;3.57;;;3.00;;
11386;SDS011;5748;53.102;8.456;2023-03-22T05:10:57;3.47;;;3.17;;
11386;SDS011;5748;53.102;8.456;2023-03-22T05:13:29;3.70;;;2.90;;
11386;SDS011;5748;53.102;8.456;2023-03-22T05:15:56;4.33;;;3.20;;
11386;SDS011;5748;53.102;8.456;2023-03-22T05:18:23;4.37;;;3.30;;
11386;SDS011;5748;53.102;8.456;2023-03-22T05:20:51;4.00;;;3.00;;
11386;SDS011;5748;53.102;8.456;2023-03-22T05:23:22;3.50;;;3.20;;
11386;SDS011;5748;53.102;8.456;2023-03-22T05:25:50;3.23;;;2.93;;
11386;SDS011;5748;53.102;8.456;2023-03-22T05:28:19;3.20;;;2.87;;
11386;SDS011;5748;53.102;8.456;2023-03-22T05:30:47;3.77;;;3.10;;
11386;SDS011;5748;53.102;8.456;2023-03-22T05:33:15;2.93;;;2.70;;
11386;SDS011;5748;53.102;8.456;2023-03-22T05:35:45;3.93;;;3.10;;
11386;SDS011;5748;53.102;8.456;2023-03-22T05:38:14;3.30;;;3.00;;
11386;SDS011;5748;53.102;8.456;2023-03-22T05:40:41;4.57;;;3.77;;
11386;SDS011;5748;53.102;8.456;2023-03-22T05:43:09;3.90;;;3.57;;
11386;SDS011;5748;53.102;8.456;2023-03-22T05:45:36;3.83;;;3.50;;
11386;SDS011;5748;53.102;8.456;2023-03-22T05:48:03;5.17;;;4.30;;
11386;SDS011;5748;53.102;8.456;2023-03-22T05:50:31;5.37;;;4.03;;
11386;SDS011;5748;53.102;8.456;2023-03-22T05:52:58;4.90;;;4.20;;
11386;SDS011;5748;53.102;8.456;2023-03-22T05:55:27;4.00;;;3.57;;
11386;SDS011;5748;53.102;8.456;2023-03-22T05:57:56;4.40;;;3.47;;
11386;SDS011;5748;53.102;8.456;2023-03-22T06:00:23;3.43;;;3.13;;
11386;SDS011;5748;53.102;8.456;2023-03-22T06:02:51;5.27;;;4.17;;
11386;SDS011;5748;53.102;8.456;2023-03-22T06:05:20;4.30;;;3.90;;
11386;SDS011;5748;53.102;8.456;2023-03-22T06:07:49;4.50;;;4.10;;
11386;SDS011;5748;53.102;8.456;2023-03-22T06:10:16;5.07;;;3.50;;
11386;SDS011;5748;53.102;8.456;2023-03-22T06:12:45;4.70;;;4.20;;
11386;SDS011;5748;53.102;8.456;2023-03-22T06:15:12;5.13;;;4.40;;
11386;SDS011;5748;53.102;8.456;2023-03-22T06:17:39;4.80;;;4.30;;
11386;SDS011;5748;53.102;8.456;2023-03-22T06:20:07;4.97;;;4.43;;
11386;SDS011;5748;53.102;8.456;2023-03-22T06:22:37;4.63;;;4.13;;
11386;SDS011;5748;53.102;8.456;2023-03-22T06:25:04;6.77;;;5.40;;
11386;SDS011;5748;53.102;8.456;2023-03-22T06:27:33;5.40;;;4.90;;
11386;SDS011;5748;53.102;8.456;2023-03-22T06:30:02;6.67;;;5.70;;
11386;SDS011;5748;53.102;8.456;2023-03-22T06:32:30;5.27;;;4.73;;
11386;SDS011;5748;53.102;8.456;2023-03-22T06:34:57;5.80;;;5.20;;
11386;SDS011;5748;53.102;8.456;2023-03-22T06:37:24;4.97;;;4.57;;
11386;SDS011;5748;53.102;8.456;2023-03-22T06:39:51;5.20;;;4.67;;
11386;SDS011;5748;53.102;8.456;2023-03-22T06:42:18;5.80;;;5.20;;
11386;SDS011;5748;53.102;8.456;2023-03-22T06:44:45;5.97;;;4.77;;
11386;SDS011;5748;53.102;8.456;2023-03-22T06:47:20;6.80;;;6.07;;
11386;SDS011;5748;53.102;8.456;2023-03-22T06:49:47;7.20;;;6.33;;
11386;SDS011;5748;53.102;8.456;2023-03-22T06:52:18;5.93;;;5.33;;
11386;SDS011;5748;53.102;8.456;2023-03-22T06:54:45;6.00;;;5.30;;
11386;SDS011;5748;53.102;8.456;2023-03-22T06:57:13;6.00;;;5.40;;
11386;SDS011;5748;53.102;8.456;2023-03-22T06:59:42;6.10;;;5.50;;
11386;SDS011;5748;53.102;8.456;2023-03-22T07:02:09;6.83;;;6.00;;
11386;SDS011;5748;53.102;8.456;2023-03-22T07:04:41;5.47;;;4.97;;
11386;SDS011;5748;53.102;8.456;2023-03-22T07:07:08;5.90;;;5.30;;
11386;SDS011;5748;53.102;8.456;2023-03-22T07:09:35;5.93;;;5.20;;
11386;SDS011;5748;53.102;8.456;2023-03-22T07:14:53;6.37;;;5.47;;
11386;SDS011;5748;53.102;8.456;2023-03-22T07:17:20;7.80;;;6.70;;
11386;SDS011;5748;53.102;8.456;2023-03-22T07:19:49;6.40;;;5.80;;
11386;SDS011;5748;53.102;8.456;2023-03-22T07:22:16;5.17;;;4.67;;
11386;SDS011;5748;53.102;8.456;2023-03-22T07:24:46;5.17;;;4.67;;
11386;SDS011;5748;53.102;8.456;2023-03-22T07:27:13;5.03;;;4.53;;
11386;SDS011;5748;53.102;8.456;2023-03-22T07:29:40;5.10;;;4.60;;
11386;SDS011;5748;53.102;8.456;2023-03-22T07:32:07;5.33;;;4.83;;
11386;SDS011;5748;53.102;8.456;2023-03-22T07:34:35;4.20;;;3.50;;
11386;SDS011;5748;53.102;8.456;2023-03-22T07:37:05;4.60;;;4.20;;
11386;SDS011;5748;53.102;8.456;2023-03-22T07:39:32;5.40;;;4.90;;
11386;SDS011;5748;53.102;8.456;2023-03-22T07:41:59;4.40;;;4.00;;
11386;SDS011;5748;53.102;8.456;2023-03-22T07:44:26;6.00;;;4.77;;
11386;SDS011;5748;53.102;8.456;2023-03-22T07:46:54;4.77;;;4.30;;
11386;SDS011;5748;53.102;8.456;2023-03-22T07:49:21;4.50;;;4.10;;
11386;SDS011;5748;53.102;8.456;2023-03-22T07:51:48;5.03;;;4.53;;
11386;SDS011;5748;53.102;8.456;2023-03-22T07:54:16;4.20;;;3.80;;
11386;SDS011;5748;53.102;8.456;2023-03-22T07:56:43;5.67;;;4.63;;
11386;SDS011;5748;53.102;8.456;2023-03-22T07:59:12;5.97;;;4.73;;
11386;SDS011;5748;53.102;8.456;2023-03-22T08:01:39;4.80;;;3.83;;
11386;SDS011;5748;53.102;8.456;2023-03-22T08:04:06;7.33;;;4.33;;
11386;SDS011;5748;53.102;8.456;2023-03-22T08:06:33;4.20;;;3.80;;
11386;SDS011;5748;53.102;8.456;2023-03-22T08:09:23;4.83;;;3.80;;
11386;SDS011;5748;53.102;8.456;2023-03-22T08:11:51;3.83;;;3.43;;
11386;SDS011;5748;53.102;8.456;2023-03-22T08:14:18;5.17;;;4.53;;
11386;SDS011;5748;53.102;8.456;2023-03-22T08:16:45;3.93;;;3.40;;
11386;SDS011;5748;53.102;8.456;2023-03-22T08:19:12;4.00;;;3.30;;
11386;SDS011;5748;53.102;8.456;2023-03-22T08:21:39;4.90;;;4.40;;
11386;SDS011;5748;53.102;8.456;2023-03-22T08:24:06;4.50;;;3.57;;
11386;SDS011;5748;53.102;8.456;2023-03-22T08:26:35;3.77;;;3.10;;
11386;SDS011;5748;53.102;8.456;2023-03-22T08:29:03;5.27;;;3.47;;
11386;SDS011;5748;53.102;8.456;2023-03-22T08:31:30;6.20;;;4.50;;
11386;SDS011;5748;53.102;8.456;2023-03-22T08:33:57;4.30;;;3.90;;
11386;SDS011;5748;53.102;8.456;2023-03-22T08:36:24;4.40;;;4.00;;
11386;SDS011;5748;53.102;8.456;2023-03-22T08:38:52;4.73;;;3.77;;
11386;SDS011;5748;53.102;8.456;2023-03-22T08:41:20;3.80;;;3.40;;
11386;SDS011;5748;53.102;8.456;2023-03-22T08:43:49;5.40;;;4.53;;
11386;SDS011;5748;53.102;8.456;2023-03-22T08:46:16;4.53;;;4.00;;
11386;SDS011;5748;53.102;8.456;2023-03-22T08:51:15;4.97;;;4.03;;
11386;SDS011;5748;53.102;8.456;2023-03-22T08:53:43;5.83;;;3.93;;
11386;SDS011;5748;53.102;8.456;2023-03-22T08:56:10;4.10;;;3.30;;
11386;SDS011;5748;53.102;8.456;2023-03-22T08:58:40;4.60;;;3.80;;
11386;SDS011;5748;53.102;8.456;2023-03-22T09:01:18;3.90;;;3.50;;
11386;SDS011;5748;53.102;8.456;2023-03-22T09:03:45;3.80;;;2.80;;
11386;SDS011;5748;53.102;8.456;2023-03-22T09:06:13;3.63;;;2.83;;
11386;SDS011;5748;53.102;8.456;2023-03-22T09:08:40;4.10;;;3.40;;
11386;SDS011;5748;53.102;8.456;2023-03-22T09:11:07;4.37;;;3.60;;
11386;SDS011;5748;53.102;8.456;2023-03-22T09:13:35;4.13;;;3.40;;
11386;SDS011;5748;53.102;8.456;2023-03-22T09:16:03;3.30;;;3.00;;
11386;SDS011;5748;53.102;8.456;2023-03-22T09:18:34;4.77;;;3.40;;
11386;SDS011;5748;53.102;8.456;2023-03-22T09:21:01;4.00;;;3.50;;
11386;SDS011;5748;53.102;8.456;2023-03-22T09:23:29;3.93;;;3.50;;
11386;SDS011;5748;53.102;8.456;2023-03-22T09:25:58;3.63;;;3.20;;
11386;SDS011;5748;53.102;8.456;2023-03-22T09:28:27;3.13;;;2.83;;
11386;SDS011;5748;53.102;8.456;2023-03-22T09:30:58;4.80;;;2.97;;
11386;SDS011;5748;53.102;8.456;2023-03-22T09:33:26;4.30;;;2.97;;
11386;SDS011;5748;53.102;8.456;2023-03-22T09:35:54;4.07;;;3.00;;
11386;SDS011;5748;53.102;8.456;2023-03-22T09:38:22;3.80;;;2.80;;
11386;SDS011;5748;53.102;8.456;2023-03-22T09:40:50;3.00;;;2.40;;
11386;SDS011;5748;53.102;8.456;2023-03-22T09:43:24;5.13;;;3.20;;
11386;SDS011;5748;53.102;8.456;2023-03-22T09:45:53;3.53;;;2.80;;
11386;SDS011;5748;53.102;8.456;2023-03-22T09:48:21;3.67;;;2.70;;
11386;SDS011;5748;53.102;8.456;2023-03-22T09:50:53;3.30;;;2.30;;
11386;SDS011;5748;53.102;8.456;2023-03-22T09:53:22;3.27;;;2.00;;
11386;SDS011;5748;53.102;8.456;2023-03-22T09:55:54;2.73;;;2.00;;
11386;SDS011;5748;53.102;8.456;2023-03-22T09:58:28;3.40;;;2.07;;
11386;SDS011;5748;53.102;8.456;2023-03-22T10:00:59;2.50;;;2.00;;
11386;SDS011;5748;53.102;8.456;2023-03-22T10:06:31;2.77;;;1.90;;
11386;SDS011;5748;53.102;8.456;2023-03-22T10:09:00;2.20;;;1.57;;
11386;SDS011;5748;53.102;8.456;2023-03-22T10:11:38;2.23;;;1.50;;
11386;SDS011;5748;53.102;8.456;2023-03-22T10:14:15;3.17;;;2.03;;
11386;SDS011;5748;53.102;8.456;2023-03-22T10:16:55;3.20;;;1.83;;
11386;SDS011;5748;53.102;8.456;2023-03-22T10:19:32;2.40;;;1.60;;
11386;SDS011;5748;53.102;8.456;2023-03-22T10:22:08;1.90;;;1.70;;
11386;SDS011;5748;53.102;8.456;2023-03-22T10:24:38;2.60;;;1.60;;
11386;SDS011;5748;53.102;8.456;2023-03-22T10:27:11;2.57;;;1.60;;
11386;SDS011;5748;53.102;8.456;2023-03-22T10:29:41;1.30;;;1.20;;
11386;SDS011;5748;53.102;8.456;2023-03-22T10:32:13;2.90;;;1.50;;
11386;SDS011;5748;53.102;8.456;2023-03-22T10:34:42;3.70;;;1.53;;
11386;SDS011;5748;53.102;8.456;2023-03-22T10:37:12;1.20;;;1.10;;
11386;SDS011;5748;53.102;8.456;2023-03-22T10:39:43;2.50;;;1.40;;
11386;SDS011;5748;53.102;8.456;2023-03-22T10:42:14;1.90;;;1.40;;
11386;SDS011;5748;53.102;8.456;2023-03-22T10:44:46;1.80;;;1.40;;
11386;SDS011;5748;53.102;8.456;2023-03-22T10:47:18;2.40;;;1.40;;
11386;SDS011;5748;53.102;8.456;2023-03-22T10:49:53;1.50;;;1.30;;
11386;SDS011;5748;53.102;8.456;2023-03-22T10:52:30;1.90;;;1.40;;
11386;SDS011;5748;53.102;8.456;2023-03-22T10:55:05;1.50;;;1.20;;
11386;SDS011;5748;53.102;8.456;2023-03-22T10:57:38;1.87;;;1.30;;
11386;SDS011;5748;53.102;8.456;2023-03-22T11:02:56;1.67;;;1.20;;
11386;SDS011;5748;53.102;8.456;2023-03-22T11:05:26;1.87;;;1.43;;
11386;SDS011;5748;53.102;8.456;2023-03-22T11:07:56;1.27;;;1.10;;
11386;SDS011;5748;53.102;8.456;2023-03-22T11:10:25;3.17;;;1.37;;
11386;SDS011;5748;53.102;8.456;2023-03-22T11:13:09;2.83;;;1.73;;
11386;SDS011;5748;53.102;8.456;2023-03-22T11:15:48;2.10;;;1.30;;
11386;SDS011;5748;53.102;8.456;2023-03-22T11:18:17;2.20;;;1.30;;
11386;SDS011;5748;53.102;8.456;2023-03-22T11:20:51;2.77;;;1.63;;
11386;SDS011;5748;53.102;8.456;2023-03-22T11:23:24;4.93;;;1.43;;
11386;SDS011;5748;53.102;8.456;2023-03-22T11:25:54;2.50;;;1.30;;
11386;SDS011;5748;53.102;8.456;2023-03-22T11:31:18;2.97;;;1.40;;
11386;SDS011;5748;53.102;8.456;2023-03-22T11:33:54;2.57;;;1.23;;
11386;SDS011;5748;53.102;8.456;2023-03-22T11:36:23;3.40;;;1.60;;
11386;SDS011;5748;53.102;8.456;2023-03-22T11:38:56;3.23;;;1.70;;
11386;SDS011;5748;53.102;8.456;2023-03-22T11:41:26;2.23;;;1.50;;
11386;SDS011;5748;53.102;8.456;2023-03-22T11:43:55;2.67;;;1.60;;
11386;SDS011;5748;53.102;8.456;2023-03-22T11:46:26;2.67;;;1.50;;
11386;SDS011;5748;53.102;8.456;2023-03-22T11:48:55;1.90;;;1.47;;
11386;SDS011;5748;53.102;8.456;2023-03-22T11:51:26;2.20;;;1.40;;
11386;SDS011;5748;53.102;8.456;2023-03-22T11:54:00;1.57;;;1.30;;
11386;SDS011;5748;53.102;8.456;2023-03-22T11:56:34;2.10;;;1.40;;
11386;SDS011;5748;53.102;8.456;2023-03-22T11:59:07;1.97;;;1.40;;
11386;SDS011;5748;53.102;8.456;2023-03-22T12:01:41;1.53;;;1.30;;
11386;SDS011;5748;53.102;8.456;2023-03-22T12:04:12;2.37;;;1.50;;
11386;SDS011;5748;53.102;8.456;2023-03-22T12:06:46;1.53;;;1.20;;
11386;SDS011;5748;53.102;8.456;2023-03-22T12:09:21;2.60;;;1.40;;
11386;SDS011;5748;53.102;8.456;2023-03-22T12:11:56;1.83;;;1.30;;
11386;SDS011;5748;53.102;8.456;2023-03-22T12:14:27;2.90;;;1.60;;
11386;SDS011;5748;53.102;8.456;2023-03-22T12:16:58;2.13;;;1.30;;
11386;SDS011;5748;53.102;8.456;2023-03-22T12:22:36;2.03;;;1.10;;
11386;SDS011;5748;53.102;8.456;2023-03-22T12:25:11;1.90;;;1.20;;
11386;SDS011;5748;53.102;8.456;2023-03-22T12:27:42;1.43;;;1.20;;
11386;SDS011;5748;53.102;8.456;2023-03-22T12:30:13;3.00;;;1.30;;
11386;SDS011;5748;53.102;8.456;2023-03-22T12:32:46;3.23;;;1.60;;
11386;SDS011;5748;53.102;8.456;2023-03-22T12:35:17;1.63;;;1.20;;
11386;SDS011;5748;53.102;8.456;2023-03-22T12:37:48;2.63;;;1.13;;
11386;SDS011;5748;53.102;8.456;2023-03-22T12:40:20;2.30;;;1.20;;
11386;SDS011;5748;53.102;8.456;2023-03-22T12:42:53;1.47;;;1.00;;
11386;SDS011;5748;53.102;8.456;2023-03-22T12:45:28;2.33;;;1.43;;
11386;SDS011;5748;53.102;8.456;2023-03-22T12:48:02;2.33;;;1.50;;
11386;SDS011;5748;53.102;8.456;2023-03-22T12:50:37;1.80;;;1.40;;
11386;SDS011;5748;53.102;8.456;2023-03-22T12:53:10;2.53;;;1.63;;
11386;SDS011;5748;53.102;8.456;2023-03-22T12:55:42;3.20;;;1.63;;
11386;SDS011;5748;53.102;8.456;2023-03-22T12:58:11;1.77;;;1.50;;
11386;SDS011;5748;53.102;8.456;2023-03-22T13:00:44;1.40;;;1.20;;
11386;SDS011;5748;53.102;8.456;2023-03-22T13:03:19;2.10;;;1.57;;
11386;SDS011;5748;53.102;8.456;2023-03-22T13:05:58;1.87;;;1.30;;
11386;SDS011;5748;53.102;8.456;2023-03-22T13:11:41;1.97;;;1.30;;
11386;SDS011;5748;53.102;8.456;2023-03-22T13:14:52;2.50;;;1.53;;
11386;SDS011;5748;53.102;8.456;2023-03-22T13:17:37;2.07;;;1.40;;
11386;SDS011;5748;53.102;8.456;2023-03-22T13:20:22;2.17;;;1.50;;
11386;SDS011;5748;53.102;8.456;2023-03-22T13:22:59;2.80;;;1.53;;
11386;SDS011;5748;53.102;8.456;2023-03-22T13:25:33;2.17;;;1.60;;
11386;SDS011;5748;53.102;8.456;2023-03-22T13:28:03;2.17;;;1.60;;
11386;SDS011;5748;53.102;8.456;2023-03-22T13:30:50;2.00;;;1.63;;
11386;SDS011;5748;53.102;8.456;2023-03-22T13:33:23;2.33;;;1.70;;
11386;SDS011;5748;53.102;8.456;2023-03-22T13:35:53;1.60;;;1.30;;
11386;SDS011;5748;53.102;8.456;2023-03-22T13:38:23;1.93;;;1.30;;
11386;SDS011;5748;53.102;8.456;2023-03-22T13:40:55;2.53;;;1.60;;
11386;SDS011;5748;53.102;8.456;2023-03-22T13:43:29;1.77;;;1.60;;
11386;SDS011;5748;53.102;8.456;2023-03-22T13:49:11;3.20;;;1.90;;
11386;SDS011;5748;53.102;8.456;2023-03-22T13:51:55;3.87;;;2.33;;
11386;SDS011;5748;53.102;8.456;2023-03-22T13:54:27;2.30;;;1.60;;
11386;SDS011;5748;53.102;8.456;2023-03-22T13:57:01;2.03;;;1.40;;
11386;SDS011;5748;53.102;8.456;2023-03-22T13:59:56;1.60;;;1.47;;
11386;SDS011;5748;53.102;8.456;2023-03-22T14:02:35;2.73;;;1.43;;
11386;SDS011;5748;53.102;8.456;2023-03-22T14:05:06;2.57;;;1.90;;
11386;SDS011;5748;53.102;8.456;2023-03-22T14:07:40;2.33;;;1.67;;
11386;SDS011;5748;53.102;8.456;2023-03-22T14:10:11;2.73;;;1.83;;
11386;SDS011;5748;53.102;8.456;2023-03-22T14:12:47;1.70;;;1.60;;
11386;SDS011;5748;53.102;8.456;2023-03-22T14:15:19;4.43;;;1.90;;
11386;SDS011;5748;53.102;8.456;2023-03-22T14:17:59;1.80;;;1.67;;
11386;SDS011;5748;53.102;8.456;2023-03-22T14:20:31;2.53;;;1.77;;
11386;SDS011;5748;53.102;8.456;2023-03-22T14:23:02;2.73;;;1.73;;
11386;SDS011;5748;53.102;8.456;2023-03-22T14:25:34;3.17;;;1.80;;
11386;SDS011;5748;53.102;8.456;2023-03-22T14:28:02;2.27;;;1.50;;
11386;SDS011;5748;53.102;8.456;2023-03-22T14:30:35;2.87;;;1.50;;
11386;SDS011;5748;53.102;8.456;2023-03-22T14:33:05;1.87;;;1.40;;
11386;SDS011;5748;53.102;8.456;2023-03-22T14:35:52;2.80;;;2.00;;
11386;SDS011;5748;53.102;8.456;2023-03-22T14:38:24;1.60;;;1.50;;
11386;SDS011;5748;53.102;8.456;2023-03-22T14:41:06;2.07;;;1.80;;
11386;SDS011;5748;53.102;8.456;2023-03-22T14:43:37;1.93;;;1.50;;
11386;SDS011;5748;53.102;8.456;2023-03-22T14:46:14;2.07;;;1.70;;
11386;SDS011;5748;53.102;8.456;2023-03-22T14:48:48;2.30;;;2.00;;
11386;SDS011;5748;53.102;8.456;2023-03-22T14:51:19;3.20;;;1.90;;
11386;SDS011;5748;53.102;8.456;2023-03-22T14:53:50;1.83;;;1.70;;
11386;SDS011;5748;53.102;8.456;2023-03-22T14:56:20;1.97;;;1.70;;
11386;SDS011;5748;53.102;8.456;2023-03-22T14:58:52;3.30;;;2.40;;
11386;SDS011;5748;53.102;8.456;2023-03-22T15:01:27;2.57;;;1.60;;
11386;SDS011;5748;53.102;8.456;2023-03-22T15:04:04;2.67;;;1.70;;
11386;SDS011;5748;53.102;8.456;2023-03-22T15:06:45;3.17;;;1.50;;
11386;SDS011;5748;53.102;8.456;2023-03-22T15:12:09;1.67;;;1.30;;
11386;SDS011;5748;53.102;8.456;2023-03-22T15:14:38;2.70;;;1.53;;
11386;SDS011;5748;53.102;8.456;2023-03-22T15:17:07;2.37;;;1.97;;
11386;SDS011;5748;53.102;8.456;2023-03-22T15:19:39;2.83;;;1.60;;
11386;SDS011;5748;53.102;8.456;2023-03-22T15:22:11;1.83;;;1.57;;
11386;SDS011;5748;53.102;8.456;2023-03-22T15:24:47;3.13;;;1.90;;
11386;SDS011;5748;53.102;8.456;2023-03-22T15:27:18;2.20;;;1.33;;
11386;SDS011;5748;53.102;8.456;2023-03-22T15:29:46;1.40;;;1.30;;
11386;SDS011;5748;53.102;8.456;2023-03-22T15:32:16;2.57;;;1.37;;
11386;SDS011;5748;53.102;8.456;2023-03-22T15:34:46;2.37;;;1.50;;
11386;SDS011;5748;53.102;8.456;2023-03-22T15:37:18;2.43;;;1.50;;
11386;SDS011;5748;53.102;8.456;2023-03-22T15:39:55;2.40;;;1.40;;
11386;SDS011;5748;53.102;8.456;2023-03-22T15:42:25;2.10;;;1.50;;
11386;SDS011;5748;53.102;8.456;2023-03-22T15:44:57;4.13;;;1.57;;
11386;SDS011;5748;53.102;8.456;2023-03-22T15:47:28;1.57;;;1.30;;
11386;SDS011;5748;53.102;8.456;2023-03-22T15:50:09;2.33;;;1.30;;
11386;SDS011;5748;53.102;8.456;2023-03-22T15:52:36;2.20;;;1.40;;
11386;SDS011;5748;53.102;8.456;2023-03-22T15:55:14;1.60;;;1.30;;
11386;SDS011;5748;53.102;8.456;2023-03-22T15:57:43;1.30;;;1.20;;
11386;SDS011;5748;53.102;8.456;2023-03-22T16:00:18;1.30;;;1.20;;
11386;SDS011;5748;53.102;8.456;2023-03-22T16:02:53;2.00;;;1.53;;